createdAt,value
2022-10-03T00:02:20.084Z,83.60
2022-10-03T00:05:22.576Z,82.78
2022-10-03T00:08:06.249Z,83.69
2022-10-03T00:11:38.098Z,81.93
2022-10-03T00:14:27.006Z,82.70
2022-10-03T00:17:12.402Z,82.74
2022-10-03T00:19:52.119Z,83.33
2022-10-03T00:22:52.877Z,83.09
2022-10-03T00:26:28.399Z,81.74
2022-10-03T00:29:18.935Z,84.28
2022-10-03T00:32:05.826Z,83.05
2022-10-03T00:34:58.891Z,83.42
2022-10-03T00:38:03.835Z,82.69
2022-10-03T00:40:58.241Z,82.71
2022-10-03T00:44:12.734Z,82.83
2022-10-03T00:46:55.669Z,83.48
2022-10-03T00:49:57.673Z,82.54
2022-10-03T00:52:51.557Z,83.37
2022-10-03T00:55:50.574Z,82.76
2022-10-03T00:58:48.695Z,82.77
2022-10-03T01:01:27.699Z,83.43
2022-10-03T01:04:21.804Z,83.64
2022-10-03T01:07:45.195Z,82.72
2022-10-03T01:10:22.802Z,85.58
2022-10-03T01:13:28.882Z,83.08
2022-10-03T01:16:10.759Z,85.60
2022-10-03T01:19:02.060Z,83.34
2022-10-03T01:21:57.937Z,84.71
2022-10-03T01:25:19.657Z,82.35
2022-10-03T01:28:20.753Z,84.14
2022-10-03T01:30:56.646Z,81.95
2022-10-03T01:33:48.232Z,84.04
2022-10-03T01:36:49.794Z,83.34
2022-10-03T01:39:50.823Z,83.44
2022-10-03T01:42:44.208Z,83.51
2022-10-03T01:45:52.822Z,82.61
2022-10-03T01:48:45.411Z,83.72
2022-10-03T01:51:56.574Z,82.92
2022-10-03T01:54:35.863Z,83.95
2022-10-03T01:57:30.102Z,82.96
2022-10-03T02:00:17.633Z,83.76
2022-10-03T02:03:17.165Z,83.28
2022-10-03T02:06:32.760Z,82.89
2022-10-03T02:09:16.546Z,84.18
2022-10-03T02:12:13.721Z,84.13
2022-10-03T02:14:54.715Z,84.65
2022-10-03T02:17:27.105Z,81.95
2022-10-03T02:20:36.229Z,83.27
2022-10-03T02:23:33.866Z,83.63
2022-10-03T02:26:21.028Z,83.32
2022-10-03T02:29:21.840Z,83.32
2022-10-03T02:32:23.929Z,83.02
2022-10-03T02:35:14.961Z,83.48
2022-10-03T02:38:09.990Z,83.27
2022-10-03T02:41:32.573Z,82.87
2022-10-03T02:44:40.318Z,83.12
2022-10-03T02:47:34.573Z,83.16
2022-10-03T02:50:52.593Z,83.21
2022-10-03T02:54:12.778Z,82.79
2022-10-03T02:56:56.438Z,83.58
2022-10-03T02:59:48.885Z,83.49
2022-10-03T03:02:48.299Z,82.85
2022-10-03T03:06:03.671Z,82.92
2022-10-03T03:09:08.488Z,83.29
2022-10-03T03:12:06.296Z,84.62
2022-10-03T03:15:20.568Z,83.64
2022-10-03T03:18:11.195Z,84.58
2022-10-03T03:21:15.590Z,83.61
2022-10-03T03:24:07.035Z,85.14
2022-10-03T03:27:22.228Z,83.07
2022-10-03T03:30:19.290Z,83.46
2022-10-03T03:33:33.120Z,83.20
2022-10-03T03:36:39.966Z,83.42
2022-10-03T03:39:24.835Z,83.58
2022-10-03T03:42:38.172Z,83.13
2022-10-03T03:45:16.805Z,84.94
2022-10-03T03:48:01.439Z,84.46
2022-10-03T03:50:58.072Z,84.03
2022-10-03T03:54:09.780Z,83.71
2022-10-03T03:56:42.469Z,84.98
2022-10-03T03:59:39.030Z,83.87
2022-10-03T04:02:29.309Z,84.41
2022-10-03T04:05:11.901Z,84.86
2022-10-03T04:08:34.715Z,82.90
2022-10-03T04:11:13.729Z,85.45
2022-10-03T04:14:27.944Z,84.19
2022-10-03T04:17:26.335Z,85.04
2022-10-03T04:20:21.127Z,83.43
2022-10-03T04:22:57.949Z,84.05
2022-10-03T04:25:34.770Z,84.31
2022-10-03T04:28:26.642Z,84.93
2022-10-03T04:31:24.499Z,83.22
2022-10-03T04:34:15.744Z,83.35
2022-10-03T04:37:28.623Z,83.06
2022-10-03T04:40:49.249Z,82.82
2022-10-03T04:43:44.936Z,83.33
2022-10-03T04:46:46.735Z,83.18
2022-10-03T04:49:30.854Z,84.55
2022-10-03T04:52:21.458Z,84.68
2022-10-03T04:55:10.047Z,85.11
2022-10-03T04:58:26.707Z,83.63
2022-10-03T05:01:22.362Z,83.48
2022-10-03T05:04:26.134Z,83.89
2022-10-03T05:07:13.473Z,83.97
2022-10-03T05:09:54.810Z,84.57
2022-10-03T05:13:05.200Z,83.98
2022-10-03T05:16:02.196Z,84.21
2022-10-03T05:19:06.028Z,84.13
2022-10-03T05:21:42.686Z,84.34
2022-10-03T05:24:37.091Z,84.18
2022-10-03T05:27:24.872Z,84.42
2022-10-03T05:30:39.404Z,83.92
2022-10-03T05:33:20.248Z,84.66
2022-10-03T05:36:23.606Z,83.98
2022-10-03T05:39:23.642Z,83.94
2022-10-03T05:42:35.098Z,84.00
2022-10-03T05:45:08.861Z,84.98
2022-10-03T05:48:23.397Z,83.68
2022-10-03T05:51:21.874Z,84.16
2022-10-03T05:54:31.965Z,84.11
2022-10-03T05:57:26.024Z,84.86
2022-10-03T06:00:21.610Z,84.47
2022-10-03T06:03:10.429Z,84.39
2022-10-03T06:06:26.387Z,84.11
2022-10-03T06:09:35.636Z,84.39
2022-10-03T06:12:38.155Z,84.95
2022-10-03T06:15:21.368Z,84.89
2022-10-03T06:18:01.132Z,85.21
2022-10-03T06:21:16.615Z,84.32
2022-10-03T06:24:08.441Z,84.68
2022-10-03T06:27:17.243Z,84.74
2022-10-03T06:30:22.058Z,84.91
2022-10-03T06:33:13.861Z,85.98
2022-10-03T06:36:18.343Z,84.91
2022-10-03T06:39:54.910Z,84.88
2022-10-03T06:42:42.762Z,84.92
2022-10-03T06:45:39.847Z,85.00
2022-10-03T06:49:07.775Z,85.11
2022-10-03T06:52:41.811Z,85.35
2022-10-03T06:55:34.868Z,85.40
2022-10-03T06:58:23.350Z,85.39
2022-10-03T07:01:12.097Z,85.62
2022-10-03T07:04:06.805Z,86.24
2022-10-03T07:07:14.502Z,85.73
2022-10-03T07:10:46.104Z,85.58
2022-10-03T07:13:44.314Z,86.39
2022-10-03T07:17:04.823Z,85.58
2022-10-03T07:20:21.983Z,85.83
2022-10-03T07:23:33.166Z,86.02
2022-10-03T07:26:34.295Z,85.22
2022-10-03T07:29:49.012Z,86.36
2022-10-03T07:33:07.011Z,86.50
2022-10-03T07:36:33.446Z,86.77
2022-10-03T07:39:34.252Z,86.93
2022-10-03T07:42:44.706Z,87.16
2022-10-03T07:45:45.290Z,87.20
2022-10-03T07:48:43.566Z,88.06
2022-10-03T07:51:24.364Z,88.20
2022-10-03T07:54:19.228Z,87.78
2022-10-03T07:57:31.998Z,87.65
2022-10-03T08:00:22.968Z,87.86
2022-10-03T08:03:25.265Z,87.62
2022-10-03T08:06:24.564Z,87.28
2022-10-03T08:09:24.785Z,87.45
2022-10-03T08:12:01.014Z,88.49
2022-10-03T08:14:58.181Z,88.48
2022-10-03T08:17:43.822Z,88.68
2022-10-03T08:20:32.151Z,89.08
2022-10-03T08:23:25.783Z,87.65
2022-10-03T08:26:22.880Z,87.81
2022-10-03T08:29:29.631Z,87.21
2022-10-03T08:32:39.238Z,87.14
2022-10-03T08:36:06.771Z,87.77
2022-10-03T08:38:57.276Z,88.69
2022-10-03T08:42:08.427Z,88.60
2022-10-03T08:45:02.746Z,87.78
2022-10-03T08:48:10.769Z,89.01
2022-10-03T08:50:50.766Z,90.12
2022-10-03T08:53:50.672Z,88.35
2022-10-03T08:57:00.271Z,88.44
2022-10-03T09:00:04.366Z,87.94
2022-10-03T09:06:28.099Z,89.00
2022-10-03T09:09:06.683Z,88.73
2022-10-03T09:11:42.046Z,89.52
2022-10-03T09:14:36.354Z,88.93
2022-10-03T09:17:15.675Z,89.25
2022-10-03T09:19:56.900Z,89.74
2022-10-03T09:23:02.183Z,90.05
2022-10-03T09:25:47.497Z,90.10
2022-10-03T09:29:07.667Z,89.79
2022-10-03T09:32:28.424Z,88.49
2022-10-03T09:35:48.595Z,88.52
2022-10-03T09:39:01.171Z,89.80
2022-10-03T09:41:50.472Z,89.67
2022-10-03T09:44:41.955Z,89.81
2022-10-03T09:47:36.083Z,88.93
2022-10-03T09:50:54.022Z,88.56
2022-10-03T09:54:16.548Z,88.85
2022-10-03T09:57:05.619Z,89.66
2022-10-03T09:59:52.977Z,90.07
2022-10-03T10:02:44.680Z,89.46
2022-10-03T10:05:36.692Z,89.23
2022-10-03T10:08:52.674Z,89.69
2022-10-03T10:11:37.643Z,89.74
2022-10-03T10:14:47.715Z,89.37
2022-10-03T10:17:44.968Z,90.02
2022-10-03T10:21:03.095Z,89.22
2022-10-03T10:24:14.890Z,90.51
2022-10-03T10:27:00.087Z,90.60
2022-10-03T10:29:55.944Z,91.21
2022-10-03T10:32:56.910Z,91.39
2022-10-03T10:36:08.435Z,91.51
2022-10-03T10:39:14.025Z,91.14
2022-10-03T10:42:25.490Z,91.45
2022-10-03T10:45:49.283Z,91.03
2022-10-03T10:49:13.255Z,91.10
2022-10-03T10:52:04.645Z,91.00
2022-10-03T10:54:56.946Z,91.77
2022-10-03T10:58:01.798Z,91.26
2022-10-03T11:01:07.469Z,91.10
2022-10-03T11:04:25.280Z,90.95
2022-10-03T11:07:19.641Z,91.17
2022-10-03T11:10:01.652Z,90.80
2022-10-03T11:13:08.535Z,89.86
2022-10-03T11:16:16.226Z,90.25
2022-10-03T11:19:13.843Z,90.04
2022-10-03T11:22:18.114Z,90.49
2022-10-03T11:25:13.050Z,90.40
2022-10-03T11:28:32.567Z,92.08
2022-10-03T11:31:28.001Z,92.07
2022-10-03T11:34:19.020Z,91.74
2022-10-03T11:37:05.142Z,91.51
2022-10-03T11:39:46.070Z,91.42
2022-10-03T11:42:59.443Z,91.04
2022-10-03T11:45:58.145Z,91.88
2022-10-03T11:48:40.458Z,91.69
2022-10-03T11:51:37.432Z,91.48
2022-10-03T11:54:37.439Z,91.80
2022-10-03T11:57:28.294Z,91.57
2022-10-03T12:00:14.123Z,91.32
2022-10-03T12:03:04.456Z,91.44
2022-10-03T12:06:15.402Z,91.04
2022-10-03T12:09:04.005Z,91.51
2022-10-03T12:11:41.728Z,92.12
2022-10-03T12:14:30.426Z,92.58
2022-10-03T12:17:01.290Z,92.84
2022-10-03T12:19:33.714Z,91.73
2022-10-03T12:22:33.025Z,92.38
2022-10-03T12:25:24.510Z,92.08
2022-10-03T12:28:21.238Z,91.31
2022-10-03T12:30:56.934Z,91.68
2022-10-03T12:33:52.616Z,92.44
2022-10-03T12:36:57.862Z,91.53
2022-10-03T12:40:05.617Z,91.18
2022-10-03T12:42:49.249Z,91.42
2022-10-03T12:45:30.119Z,91.02
2022-10-03T12:48:11.954Z,91.02
2022-10-03T12:50:59.447Z,88.26
2022-10-03T12:54:15.840Z,90.55
2022-10-03T12:56:50.095Z,91.55
2022-10-03T12:59:44.859Z,91.42
2022-10-03T13:02:35.565Z,91.64
2022-10-03T13:05:36.157Z,92.38
2022-10-03T13:08:28.095Z,91.51
2022-10-03T13:11:25.832Z,91.84
2022-10-03T13:14:26.832Z,92.30
2022-10-03T13:17:13.069Z,92.19
2022-10-03T13:19:59.692Z,92.43
2022-10-03T13:22:56.097Z,92.82
2022-10-03T13:25:38.990Z,92.05
2022-10-03T13:28:10.923Z,91.90
2022-10-03T13:30:57.424Z,91.68
2022-10-03T13:33:29.672Z,91.96
2022-10-03T13:36:44.703Z,90.54
2022-10-03T13:39:35.510Z,91.06
2022-10-03T13:42:28.720Z,89.59
2022-10-03T13:45:04.094Z,90.24
2022-10-03T13:47:59.065Z,90.76
2022-10-03T13:51:02.287Z,90.14
2022-10-03T13:54:11.643Z,91.11
2022-10-03T13:57:15.376Z,91.59
2022-10-03T14:00:15.033Z,91.62
2022-10-03T14:02:59.777Z,91.76
2022-10-03T14:06:30.257Z,91.54
2022-10-03T14:09:49.592Z,91.46
2022-10-03T14:12:55.864Z,90.13
2022-10-03T14:15:58.205Z,88.25
2022-10-03T14:19:02.854Z,88.37
2022-10-03T14:22:14.863Z,89.92
2022-10-03T14:25:18.406Z,90.40
2022-10-03T14:28:08.207Z,90.31
2022-10-03T14:31:16.598Z,89.79
2022-10-03T14:34:17.753Z,89.23
2022-10-03T14:37:02.848Z,89.96
2022-10-03T14:39:43.114Z,89.83
2022-10-03T14:43:14.490Z,89.88
2022-10-03T14:45:48.238Z,89.52
2022-10-03T14:48:24.729Z,89.73
2022-10-03T14:51:04.259Z,89.80
2022-10-03T14:53:31.462Z,89.94
2022-10-03T14:56:09.759Z,90.35
2022-10-03T14:58:45.846Z,89.94
2022-10-03T15:01:23.675Z,90.00
2022-10-03T15:04:15.568Z,88.85
2022-10-03T15:06:45.410Z,89.16
2022-10-03T15:09:18.257Z,89.20
2022-10-03T15:11:52.910Z,89.17
2022-10-03T15:14:24.275Z,89.37
2022-10-03T15:16:56.059Z,89.64
2022-10-03T15:19:44.046Z,89.42
2022-10-03T15:22:32.729Z,89.71
2022-10-03T15:25:14.467Z,89.52
2022-10-03T15:27:45.170Z,89.32
2022-10-03T15:30:33.496Z,89.70
2022-10-03T15:33:31.226Z,89.35
2022-10-03T15:36:22.710Z,88.93
2022-10-03T15:38:54.916Z,88.64
2022-10-03T15:41:48.178Z,88.69
2022-10-03T15:44:24.000Z,88.60
2022-10-03T15:47:01.638Z,88.45
2022-10-03T15:49:36.632Z,88.78
2022-10-03T15:52:21.250Z,88.92
2022-10-03T15:55:06.704Z,88.68
2022-10-03T15:57:45.615Z,88.83
2022-10-03T16:00:26.141Z,88.49
2022-10-03T16:03:08.534Z,88.70
2022-10-03T16:05:37.530Z,88.93
2022-10-03T16:08:14.609Z,88.37
2022-10-03T16:11:14.091Z,88.07
2022-10-03T16:13:49.140Z,88.38
2022-10-03T16:16:22.386Z,88.42
2022-10-03T16:18:58.194Z,87.93
2022-10-03T16:22:07.117Z,87.46
2022-10-03T16:25:15.972Z,87.46
2022-10-03T16:28:12.461Z,87.36
2022-10-03T16:30:52.302Z,87.95
2022-10-03T16:33:40.435Z,87.44
2022-10-03T16:36:10.346Z,87.64
2022-10-03T16:38:52.380Z,87.21
2022-10-03T16:41:34.980Z,86.89
2022-10-03T16:44:11.463Z,87.30
2022-10-03T16:46:43.158Z,87.26
2022-10-03T16:49:47.859Z,87.08
2022-10-03T16:52:18.893Z,87.20
2022-10-03T16:54:47.162Z,87.15
2022-10-03T16:57:29.337Z,86.37
2022-10-03T16:59:56.976Z,86.90
2022-10-03T17:02:29.317Z,86.74
2022-10-03T17:05:09.685Z,86.25
2022-10-03T17:08:36.802Z,86.31
2022-10-03T17:10:58.554Z,86.44
2022-10-03T17:13:51.977Z,85.53
2022-10-03T17:16:33.899Z,86.03
2022-10-03T17:19:26.294Z,85.58
2022-10-03T17:22:05.373Z,86.46
2022-10-03T17:24:53.025Z,85.88
2022-10-03T17:27:32.055Z,85.97
2022-10-03T17:30:04.070Z,86.23
2022-10-03T17:32:42.123Z,85.72
2022-10-03T17:35:15.468Z,86.13
2022-10-03T17:38:48.483Z,85.28
2022-10-03T17:41:29.077Z,85.54
2022-10-03T17:44:18.274Z,86.17
2022-10-03T17:47:26.202Z,84.76
2022-10-03T17:50:37.623Z,84.98
2022-10-03T17:53:04.965Z,85.90
2022-10-03T17:55:41.493Z,85.28
2022-10-03T17:58:17.880Z,85.58
2022-10-03T18:00:44.799Z,85.79
2022-10-03T18:03:24.014Z,85.55
2022-10-03T18:05:57.919Z,85.93
2022-10-03T18:08:36.080Z,85.42
2022-10-03T18:11:06.791Z,85.81
2022-10-03T18:13:43.996Z,85.57
2022-10-03T18:16:19.719Z,85.88
2022-10-03T18:18:49.404Z,86.04
2022-10-03T18:21:46.359Z,85.15
2022-10-03T18:24:31.718Z,85.38
2022-10-03T18:27:31.983Z,85.50
2022-10-03T18:30:22.330Z,85.13
2022-10-03T18:32:51.989Z,85.67
2022-10-03T18:35:26.646Z,85.39
2022-10-03T18:38:23.588Z,84.45
2022-10-03T18:40:59.869Z,85.42
2022-10-03T18:44:01.891Z,84.91
2022-10-03T18:46:39.606Z,85.78
2022-10-03T18:49:33.977Z,85.22
2022-10-03T18:52:24.166Z,84.82
2022-10-03T18:55:36.823Z,84.84
2022-10-03T18:58:29.273Z,84.59
2022-10-03T19:01:32.454Z,84.90
2022-10-03T19:04:08.394Z,85.73
2022-10-03T19:06:44.590Z,85.27
2022-10-03T19:09:22.796Z,85.05
2022-10-03T19:12:15.387Z,85.11
2022-10-03T19:15:21.163Z,84.73
2022-10-03T19:18:26.148Z,84.84
2022-10-03T19:21:00.074Z,85.44
2022-10-03T19:23:36.633Z,85.55
2022-10-03T19:26:35.535Z,85.53
2022-10-03T19:29:33.823Z,85.14
2022-10-03T19:32:27.234Z,85.51
2022-10-03T19:34:58.788Z,85.79
2022-10-03T19:37:25.597Z,85.71
2022-10-03T19:39:52.943Z,85.98
2022-10-03T19:42:39.113Z,85.15
2022-10-03T19:45:13.616Z,85.27
2022-10-03T19:47:57.354Z,85.17
2022-10-03T19:50:35.394Z,85.87
2022-10-03T19:53:14.999Z,85.40
2022-10-03T19:55:44.181Z,85.61
2022-10-03T19:58:24.339Z,85.58
2022-10-03T20:01:00.218Z,85.05
2022-10-03T20:03:45.969Z,85.32
2022-10-03T20:06:40.474Z,85.46
2022-10-03T20:09:28.145Z,84.84
2022-10-03T20:12:04.290Z,85.92
2022-10-03T20:14:41.707Z,86.15
2022-10-03T20:17:21.396Z,85.41
2022-10-03T20:20:12.068Z,85.25
2022-10-03T20:22:39.135Z,86.57
2022-10-03T20:25:20.354Z,86.27
2022-10-03T20:27:53.844Z,85.93
2022-10-03T20:30:53.173Z,86.02
2022-10-03T20:33:34.689Z,85.83
2022-10-03T20:36:23.837Z,86.43
2022-10-03T20:39:14.723Z,85.63
2022-10-03T20:42:04.908Z,85.86
2022-10-03T20:44:55.094Z,86.02
2022-10-03T20:48:02.311Z,85.06
2022-10-03T20:50:41.069Z,86.05
2022-10-03T20:53:17.364Z,86.33
2022-10-03T20:55:55.582Z,85.87
2022-10-03T20:58:39.511Z,85.82
2022-10-03T21:01:15.795Z,86.39
2022-10-03T21:04:24.582Z,85.77
2022-10-03T21:07:08.941Z,87.25
2022-10-03T21:10:19.672Z,85.64
2022-10-03T21:13:00.406Z,86.37
2022-10-03T21:15:59.519Z,85.79
2022-10-03T21:18:40.926Z,85.68
2022-10-03T21:21:32.989Z,87.29
2022-10-03T21:24:12.763Z,86.75
2022-10-03T21:27:09.242Z,86.18
2022-10-03T21:29:55.295Z,86.79
2022-10-03T21:32:39.275Z,85.95
2022-10-03T21:35:27.609Z,86.20
2022-10-03T21:38:15.787Z,87.23
2022-10-03T21:40:55.077Z,87.03
2022-10-03T21:43:43.446Z,85.68
2022-10-03T21:46:44.763Z,86.35
2022-10-03T21:49:54.924Z,87.08
2022-10-03T21:53:09.191Z,86.10
2022-10-03T21:56:24.709Z,85.90
2022-10-03T21:59:14.742Z,86.67
2022-10-03T22:02:13.780Z,86.34
2022-10-03T22:04:59.199Z,87.02
2022-10-03T22:07:37.639Z,86.43
2022-10-03T22:10:21.646Z,86.89
2022-10-03T22:12:55.351Z,87.14
2022-10-03T22:16:00.680Z,85.93
2022-10-03T22:18:41.924Z,87.44
2022-10-03T22:21:26.073Z,86.16
2022-10-03T22:25:15.100Z,86.65
2022-10-03T22:28:12.417Z,86.79
2022-10-03T22:30:53.698Z,86.76
2022-10-03T22:33:54.755Z,86.38
2022-10-03T22:36:22.091Z,87.75
2022-10-03T22:38:51.453Z,87.60
2022-10-03T22:41:26.846Z,87.26
2022-10-03T22:43:55.898Z,87.66
2022-10-03T22:46:28.654Z,87.58
2022-10-03T22:49:08.203Z,87.76
2022-10-03T22:51:35.906Z,87.72
2022-10-03T22:54:12.863Z,86.95
2022-10-03T22:56:52.695Z,87.66
2022-10-03T22:59:28.815Z,87.96
2022-10-03T23:02:01.755Z,87.99
2022-10-03T23:05:09.615Z,87.40
2022-10-03T23:07:54.910Z,88.13
2022-10-03T23:10:45.152Z,87.84
2022-10-03T23:13:19.799Z,88.32
2022-10-03T23:15:54.516Z,88.54
2022-10-03T23:18:58.777Z,88.44
2022-10-03T23:21:26.419Z,88.63
2022-10-03T23:24:27.902Z,88.59
2022-10-03T23:27:32.890Z,87.83
2022-10-03T23:30:11.928Z,88.51
2022-10-03T23:32:47.867Z,87.95
2022-10-03T23:35:19.576Z,88.32
2022-10-03T23:37:48.693Z,88.55
2022-10-03T23:40:47.018Z,88.19
2022-10-03T23:43:41.663Z,87.16
2022-10-03T23:46:17.099Z,87.76
2022-10-03T23:48:53.430Z,88.91
2022-10-03T23:51:27.179Z,88.44
2022-10-03T23:54:03.773Z,88.82
2022-10-03T23:56:44.427Z,88.33
2022-10-03T23:59:14.309Z,88.72
